createdAt,value
2017-10-16T00:00:35.204Z,88.20
2017-10-16T00:03:02.682Z,88.20
2017-10-16T00:05:30.392Z,88.20
2017-10-16T00:07:57.980Z,88.40
2017-10-16T00:10:25.482Z,88.40
2017-10-16T00:12:53.893Z,88.10
2017-10-16T00:15:21.379Z,88.10
2017-10-16T00:17:49.647Z,89.00
2017-10-16T00:20:17.128Z,88.30
2017-10-16T00:22:45.385Z,88.30
2017-10-16T00:25:12.990Z,88.30
2017-10-16T00:27:40.485Z,88.30
2017-10-16T00:30:07.976Z,88.50
2017-10-16T00:32:35.464Z,88.40
2017-10-16T00:35:03.523Z,88.60
2017-10-16T00:37:31.771Z,88.80
2017-10-16T00:40:00.023Z,88.80
2017-10-16T00:42:27.513Z,88.70
2017-10-16T00:44:54.985Z,88.80
2017-10-16T00:47:23.231Z,88.80
2017-10-16T00:49:50.765Z,88.70
2017-10-16T00:52:18.350Z,89.00
2017-10-16T00:54:45.889Z,89.00
2017-10-16T00:57:13.384Z,88.70
2017-10-16T00:59:40.857Z,88.90
2017-10-16T01:02:09.109Z,89.30
2017-10-16T01:04:36.796Z,89.20
2017-10-16T01:07:05.034Z,89.00
2017-10-16T01:09:32.533Z,89.00
2017-10-16T01:12:00.015Z,89.10
2017-10-16T01:14:27.595Z,89.20
2017-10-16T01:16:55.253Z,89.30
2017-10-16T01:19:22.766Z,89.30
2017-10-16T01:21:50.310Z,89.40
2017-10-16T01:24:18.700Z,89.50
2017-10-16T01:26:46.964Z,89.60
2017-10-16T01:29:15.193Z,89.60
2017-10-16T01:31:42.729Z,89.50
2017-10-16T01:34:10.200Z,89.60
2017-10-16T01:36:37.679Z,89.50
2017-10-16T01:39:05.258Z,90.00
2017-10-16T01:41:33.758Z,89.60
2017-10-16T01:44:02.016Z,89.70
2017-10-16T01:46:29.664Z,89.70
2017-10-16T01:48:57.145Z,89.50
2017-10-16T01:51:25.436Z,89.90
2017-10-16T01:53:52.918Z,89.80
2017-10-16T01:56:20.390Z,89.90
2017-10-16T01:58:47.884Z,89.80
2017-10-16T02:01:15.382Z,89.60
2017-10-16T02:03:42.854Z,89.70
2017-10-16T02:06:10.328Z,89.80
2017-10-16T02:08:37.863Z,90.00
2017-10-16T02:11:05.333Z,89.70
2017-10-16T02:13:32.833Z,89.70
2017-10-16T02:16:00.293Z,89.70
2017-10-16T02:18:28.557Z,90.00
2017-10-16T02:20:56.034Z,89.90
2017-10-16T02:23:24.282Z,90.00
2017-10-16T02:25:51.742Z,89.80
2017-10-16T02:28:20.014Z,90.00
2017-10-16T02:30:47.569Z,90.00
2017-10-16T02:33:15.057Z,90.00
2017-10-16T02:35:43.296Z,90.00
2017-10-16T02:38:10.784Z,90.00
2017-10-16T02:40:39.038Z,90.00
2017-10-16T02:43:07.273Z,90.00
2017-10-16T02:45:34.769Z,90.00
2017-10-16T02:48:03.010Z,89.90
2017-10-16T02:50:30.500Z,90.00
2017-10-16T02:52:57.962Z,90.30
2017-10-16T02:55:25.469Z,90.00
2017-10-16T02:57:52.933Z,90.00
2017-10-16T03:00:21.045Z,90.10
2017-10-16T03:02:48.624Z,90.10
2017-10-16T03:05:16.862Z,90.10
2017-10-16T03:07:44.354Z,90.10
2017-10-16T03:10:11.927Z,90.10
2017-10-16T03:12:40.340Z,90.10
2017-10-16T03:15:07.809Z,90.10
2017-10-16T03:17:35.298Z,90.20
2017-10-16T03:20:02.761Z,90.10
2017-10-16T03:22:31.013Z,90.10
2017-10-16T03:24:58.592Z,90.10
2017-10-16T03:27:26.081Z,90.20
2017-10-16T03:29:53.558Z,90.20
2017-10-16T03:32:21.043Z,90.10
2017-10-16T03:34:48.527Z,90.10
2017-10-16T03:37:16.781Z,90.20
2017-10-16T03:39:44.281Z,90.10
2017-10-16T03:42:12.678Z,89.80
2017-10-16T03:44:40.136Z,89.80
2017-10-16T03:47:07.610Z,89.80
2017-10-16T03:49:35.592Z,89.90
2017-10-16T03:52:03.085Z,89.90
2017-10-16T03:54:31.337Z,90.00
2017-10-16T03:56:59.574Z,90.00
2017-10-16T03:59:27.154Z,90.00
2017-10-16T04:01:54.661Z,90.00
2017-10-16T04:04:22.346Z,90.00
2017-10-16T04:06:49.816Z,89.90
2017-10-16T04:09:17.291Z,89.90
2017-10-16T04:11:44.789Z,89.90
2017-10-16T04:14:13.041Z,89.60
2017-10-16T04:16:40.727Z,89.60
2017-10-16T04:19:08.991Z,90.10
2017-10-16T04:21:37.234Z,89.70
2017-10-16T04:24:04.733Z,89.70
2017-10-16T04:26:32.979Z,89.70
2017-10-16T04:29:00.477Z,89.70
2017-10-16T04:31:27.952Z,89.60
2017-10-16T04:33:55.438Z,89.50
2017-10-16T04:36:22.901Z,89.50
2017-10-16T04:38:50.398Z,89.50
2017-10-16T04:41:17.887Z,89.60
2017-10-16T04:43:45.366Z,89.60
2017-10-16T04:46:12.852Z,89.40
2017-10-16T04:48:41.313Z,88.70
2017-10-16T04:51:08.810Z,89.30
2017-10-16T04:53:37.058Z,89.40
2017-10-16T04:56:04.544Z,89.50
2017-10-16T04:58:32.017Z,90.00
2017-10-16T05:00:59.659Z,89.60
2017-10-16T05:03:27.909Z,89.30
2017-10-16T05:05:55.594Z,89.40
2017-10-16T05:08:23.850Z,89.10
2017-10-16T05:10:52.095Z,89.30
2017-10-16T05:13:19.597Z,89.10
2017-10-16T05:15:47.839Z,89.10
2017-10-16T05:18:15.326Z,89.10
2017-10-16T05:20:43.565Z,89.00
2017-10-16T05:23:11.062Z,89.00
2017-10-16T05:25:39.322Z,89.00
2017-10-16T05:28:07.592Z,89.10
2017-10-16T05:30:35.052Z,89.10
2017-10-16T05:33:02.561Z,89.20
2017-10-16T05:35:30.047Z,89.40
2017-10-16T05:37:57.699Z,89.40
2017-10-16T05:40:25.195Z,89.30
2017-10-16T05:42:53.446Z,89.50
2017-10-16T05:45:20.937Z,89.50
2017-10-16T05:47:49.167Z,89.40
2017-10-16T05:50:16.730Z,89.40
2017-10-16T05:52:44.208Z,89.20
2017-10-16T05:55:11.685Z,89.20
2017-10-16T05:57:39.934Z,89.20
2017-10-16T06:00:07.422Z,89.20
2017-10-16T06:02:34.891Z,89.10
2017-10-16T06:05:02.435Z,89.20
2017-10-16T06:07:30.691Z,89.20
2017-10-16T06:09:58.163Z,89.20
2017-10-16T06:12:26.423Z,89.60
2017-10-16T06:14:54.662Z,90.00
2017-10-16T06:17:22.261Z,89.50
2017-10-16T06:19:49.803Z,89.50
2017-10-16T06:22:18.100Z,89.60
2017-10-16T06:24:46.367Z,89.50
2017-10-16T06:27:13.843Z,89.40
2017-10-16T06:29:42.229Z,89.20
2017-10-16T06:32:10.446Z,89.90
2017-10-16T06:34:37.956Z,89.20
2017-10-16T06:37:06.427Z,89.20
2017-10-16T06:39:34.677Z,89.20
2017-10-16T06:42:02.176Z,89.10
2017-10-16T06:44:29.656Z,89.20
2017-10-16T06:46:57.145Z,89.10
2017-10-16T06:49:24.625Z,89.30
2017-10-16T06:51:52.903Z,89.60
2017-10-16T06:54:20.377Z,89.60
2017-10-16T06:56:48.617Z,89.80
2017-10-16T06:59:16.250Z,89.60
2017-10-16T07:01:43.727Z,89.60
2017-10-16T07:04:11.222Z,89.70
2017-10-16T07:06:38.689Z,89.80
2017-10-16T07:09:06.182Z,89.80
2017-10-16T07:11:33.672Z,89.80
2017-10-16T07:14:01.148Z,89.50
2017-10-16T07:16:29.379Z,87.90
2017-10-16T07:18:56.869Z,87.90
2017-10-16T07:21:25.185Z,86.70
2017-10-16T07:23:52.674Z,86.70
2017-10-16T07:26:20.145Z,87.20
2017-10-16T07:28:47.617Z,87.30
2017-10-16T07:31:15.857Z,87.30
2017-10-16T07:33:43.344Z,87.20
2017-10-16T07:36:10.813Z,86.90
2017-10-16T07:38:39.052Z,86.00
2017-10-16T07:41:06.535Z,86.00
2017-10-16T07:43:34.048Z,85.60
2017-10-16T07:46:01.533Z,85.40
2017-10-16T07:48:29.009Z,85.10
2017-10-16T07:50:57.283Z,84.80
2017-10-16T07:53:25.575Z,84.70
2017-10-16T07:55:53.825Z,84.80
2017-10-16T07:58:21.414Z,84.70
2017-10-16T08:00:48.894Z,84.80
2017-10-16T08:03:16.361Z,84.60
2017-10-16T08:05:43.858Z,84.70
2017-10-16T08:08:11.328Z,84.50
2017-10-16T08:10:39.553Z,84.80
2017-10-16T08:13:07.032Z,84.10
2017-10-16T08:15:34.555Z,84.40
2017-10-16T08:18:02.059Z,84.30
2017-10-16T08:20:30.299Z,84.20
2017-10-16T08:22:57.778Z,84.20
2017-10-16T08:25:26.845Z,84.30
2017-10-16T08:27:54.337Z,84.30
2017-10-16T08:30:22.583Z,83.90
2017-10-16T08:32:50.052Z,83.80
2017-10-16T08:35:17.541Z,84.00
2017-10-16T08:37:45.764Z,84.50
2017-10-16T08:40:13.330Z,83.80
2017-10-16T08:42:40.804Z,83.50
2017-10-16T08:45:08.281Z,83.60
2017-10-16T08:47:35.824Z,83.20
2017-10-16T08:50:03.301Z,83.50
2017-10-16T08:52:31.553Z,82.60
2017-10-16T08:54:59.186Z,82.60
2017-10-16T08:57:26.679Z,82.70
2017-10-16T08:59:54.151Z,82.80
2017-10-16T09:02:22.402Z,82.20
2017-10-16T09:04:49.857Z,82.10
2017-10-16T09:07:17.495Z,81.80
2017-10-16T09:09:44.977Z,81.50
2017-10-16T09:12:12.461Z,81.60
2017-10-16T09:14:40.688Z,81.90
2017-10-16T09:17:08.177Z,81.20
2017-10-16T09:19:35.659Z,81.30
2017-10-16T09:22:03.910Z,81.00
2017-10-16T09:24:31.451Z,81.00
2017-10-16T09:26:58.944Z,80.60
2017-10-16T09:29:27.164Z,79.90
2017-10-16T09:31:54.665Z,79.80
2017-10-16T09:34:22.202Z,79.40
2017-10-16T09:36:49.665Z,79.30
2017-10-16T09:39:17.157Z,79.00
2017-10-16T09:41:45.455Z,78.20
2017-10-16T09:44:12.951Z,78.20
2017-10-16T09:46:40.416Z,78.10
2017-10-16T09:49:07.902Z,78.10
2017-10-16T09:51:36.155Z,77.60
2017-10-16T09:54:03.640Z,77.60
2017-10-16T09:56:31.864Z,76.60
2017-10-16T09:58:59.353Z,76.60
2017-10-16T10:01:26.825Z,76.50
2017-10-16T10:03:55.077Z,77.00
2017-10-16T10:06:22.557Z,77.00
2017-10-16T10:08:50.792Z,76.10
2017-10-16T10:11:18.281Z,76.10
2017-10-16T10:13:46.509Z,76.20
2017-10-16T10:16:14.003Z,76.20
2017-10-16T10:18:41.473Z,75.80
2017-10-16T10:21:09.734Z,75.50
2017-10-16T10:23:37.217Z,75.50
2017-10-16T10:26:06.222Z,75.70
2017-10-16T10:28:33.725Z,75.80
2017-10-16T10:31:01.206Z,75.20
2017-10-16T10:33:28.678Z,75.30
2017-10-16T10:35:56.905Z,74.90
2017-10-16T10:38:24.469Z,74.90
2017-10-16T10:40:51.930Z,75.30
2017-10-16T10:43:19.540Z,74.60
2017-10-16T10:45:47.762Z,74.50
2017-10-16T10:48:15.241Z,74.30
2017-10-16T10:50:42.727Z,74.20
2017-10-16T10:53:10.220Z,74.60
2017-10-16T10:55:37.866Z,74.00
2017-10-16T10:58:05.341Z,74.00
2017-10-16T11:00:32.833Z,73.40
2017-10-16T11:03:00.281Z,73.50
2017-10-16T11:05:27.759Z,73.70
2017-10-16T11:07:55.990Z,73.50
2017-10-16T11:10:23.486Z,73.40
2017-10-16T11:12:51.732Z,73.10
2017-10-16T11:15:19.227Z,73.00
2017-10-16T11:17:47.448Z,73.20
2017-10-16T11:20:14.961Z,73.20
2017-10-16T11:22:43.185Z,72.50
2017-10-16T11:25:10.656Z,72.60
2017-10-16T11:27:38.905Z,72.60
2017-10-16T11:30:06.407Z,72.00
2017-10-16T11:32:33.866Z,72.20
2017-10-16T11:35:02.134Z,73.10
2017-10-16T11:37:29.601Z,72.20
2017-10-16T11:39:57.887Z,71.30
2017-10-16T11:42:26.298Z,71.30
2017-10-16T11:44:53.757Z,71.30
2017-10-16T11:47:21.249Z,70.40
2017-10-16T11:49:48.727Z,69.50
2017-10-16T11:52:16.994Z,67.50
2017-10-16T11:54:44.517Z,67.40
2017-10-16T11:57:12.008Z,66.80
2017-10-16T11:59:39.470Z,65.10
2017-10-16T12:02:07.742Z,64.40
2017-10-16T12:04:35.202Z,64.30
2017-10-16T12:07:03.458Z,62.80
2017-10-16T12:09:30.933Z,63.40
2017-10-16T12:11:58.402Z,63.20
2017-10-16T12:14:27.573Z,64.10
2017-10-16T12:16:55.047Z,64.10
2017-10-16T12:19:22.554Z,63.70
2017-10-16T12:22:01.072Z,64.10
2017-10-16T12:24:34.337Z,63.90
2017-10-16T12:27:01.812Z,64.60
2017-10-16T12:29:29.524Z,64.60
2017-10-16T12:31:57.213Z,65.30
2017-10-16T12:34:25.100Z,65.90
2017-10-16T12:36:52.761Z,65.60
2017-10-16T12:39:20.282Z,64.90
2017-10-16T12:41:48.554Z,65.80
2017-10-16T12:44:16.185Z,65.10
2017-10-16T12:46:43.741Z,65.20
2017-10-16T12:49:11.282Z,65.60
2017-10-16T12:51:38.768Z,65.90
2017-10-16T12:54:10.558Z,66.80
2017-10-16T12:56:38.851Z,66.30
2017-10-16T12:59:06.494Z,66.40
2017-10-16T13:01:34.751Z,66.80
2017-10-16T13:04:02.257Z,66.70
2017-10-16T13:06:29.738Z,66.80
2017-10-16T13:08:57.244Z,67.10
2017-10-16T13:11:25.480Z,67.10
2017-10-16T13:13:52.990Z,67.10
2017-10-16T13:16:20.504Z,67.60
2017-10-16T13:18:47.989Z,67.40
2017-10-16T13:21:16.256Z,66.70
2017-10-16T13:23:44.514Z,67.20
2017-10-16T13:26:12.003Z,67.20
2017-10-16T13:28:40.259Z,67.60
2017-10-16T13:31:11.830Z,67.70
2017-10-16T13:33:40.056Z,67.00
2017-10-16T13:36:07.553Z,67.00
2017-10-16T13:38:35.811Z,66.80
2017-10-16T13:41:03.303Z,66.80
2017-10-16T13:43:30.761Z,67.30
2017-10-16T13:45:58.283Z,66.80
2017-10-16T13:48:26.526Z,67.30
2017-10-16T13:50:58.505Z,67.20
2017-10-16T13:53:26.916Z,68.30
2017-10-16T13:55:56.035Z,68.10
2017-10-16T13:58:23.559Z,67.90
2017-10-16T14:00:59.299Z,67.90
2017-10-16T14:03:33.522Z,68.60
2017-10-16T14:06:06.317Z,68.20
2017-10-16T14:08:34.599Z,68.10
2017-10-16T14:11:03.346Z,68.20
2017-10-16T14:13:31.018Z,68.20
2017-10-16T14:15:58.499Z,68.40
2017-10-16T14:18:26.017Z,68.00
2017-10-16T14:20:53.635Z,68.40
2017-10-16T14:23:21.124Z,68.70
2017-10-16T14:25:48.616Z,68.60
2017-10-16T14:28:16.262Z,69.10
2017-10-16T14:30:43.921Z,69.20
2017-10-16T14:33:11.390Z,68.90
2017-10-16T14:35:39.060Z,69.40
2017-10-16T14:38:06.538Z,69.50
2017-10-16T14:40:34.806Z,69.30
2017-10-16T14:43:03.076Z,69.80
2017-10-16T14:45:31.334Z,69.70
2017-10-16T14:47:59.426Z,69.60
2017-10-16T14:50:27.656Z,69.30
2017-10-16T14:52:55.156Z,69.10
2017-10-16T14:55:23.388Z,69.00
2017-10-16T14:57:51.591Z,69.60
2017-10-16T15:00:19.130Z,69.40
2017-10-16T15:02:47.198Z,69.80
2017-10-16T15:05:14.662Z,69.70
2017-10-16T15:07:42.152Z,69.40
2017-10-16T15:10:10.529Z,69.90
2017-10-16T15:12:38.777Z,70.00
2017-10-16T15:15:06.261Z,69.90
2017-10-16T15:17:34.501Z,70.30
2017-10-16T15:20:02.733Z,70.30
2017-10-16T15:22:30.201Z,70.70
2017-10-16T15:24:57.709Z,71.20
2017-10-16T15:27:25.190Z,71.60
2017-10-16T15:29:53.453Z,73.00
2017-10-16T15:32:20.923Z,73.00
2017-10-16T15:34:49.177Z,73.70
2017-10-16T15:37:16.660Z,73.60
2017-10-16T15:39:44.968Z,74.30
2017-10-16T15:42:12.539Z,74.20
2017-10-16T15:44:40.017Z,74.50
2017-10-16T15:47:07.500Z,74.80
2017-10-16T15:49:36.080Z,75.20
2017-10-16T15:52:04.370Z,75.60
2017-10-16T15:54:32.600Z,75.70
2017-10-16T15:57:00.077Z,75.70
2017-10-16T15:59:27.666Z,76.10
2017-10-16T16:01:55.366Z,76.10
2017-10-16T16:04:22.845Z,76.20
2017-10-16T16:06:50.318Z,76.20
2017-10-16T16:09:17.814Z,76.20
2017-10-16T16:11:45.282Z,76.30
2017-10-16T16:14:12.858Z,76.10
2017-10-16T16:16:40.325Z,76.20
2017-10-16T16:19:07.811Z,76.40
2017-10-16T16:21:36.061Z,76.50
2017-10-16T16:24:03.547Z,76.50
2017-10-16T16:26:31.773Z,77.20
2017-10-16T16:28:59.257Z,77.20
2017-10-16T16:31:26.753Z,77.20
2017-10-16T16:33:54.251Z,77.00
2017-10-16T16:36:21.760Z,76.70
2017-10-16T16:38:50.067Z,76.80
2017-10-16T16:41:17.570Z,76.80
2017-10-16T16:43:45.065Z,76.90
2017-10-16T16:46:12.769Z,77.40
2017-10-16T16:48:40.385Z,78.10
2017-10-16T16:51:07.893Z,77.40
2017-10-16T16:53:35.413Z,77.50
2017-10-16T16:56:02.984Z,77.20
2017-10-16T16:58:30.470Z,77.20
2017-10-16T17:00:57.961Z,77.20
2017-10-16T17:03:26.236Z,77.40
2017-10-16T17:05:54.485Z,77.50
2017-10-16T17:08:21.980Z,77.50
2017-10-16T17:10:50.217Z,77.70
2017-10-16T17:13:17.718Z,77.70
2017-10-16T17:15:45.178Z,77.70
2017-10-16T17:18:12.702Z,78.00
2017-10-16T17:20:40.338Z,77.90
2017-10-16T17:23:07.811Z,78.10
2017-10-16T17:25:35.308Z,78.10
2017-10-16T17:28:02.946Z,78.00
2017-10-16T17:30:31.208Z,77.80
2017-10-16T17:32:58.677Z,77.80
2017-10-16T17:35:26.949Z,78.50
2017-10-16T17:37:54.637Z,77.90
2017-10-16T17:40:22.166Z,78.00
2017-10-16T17:42:49.657Z,78.20
2017-10-16T17:45:17.164Z,78.50
2017-10-16T17:47:44.797Z,78.10
2017-10-16T17:50:12.273Z,78.10
2017-10-16T17:52:39.754Z,77.90
2017-10-16T17:55:07.316Z,77.60
2017-10-16T17:57:34.849Z,78.40
2017-10-16T18:00:02.379Z,77.90
2017-10-16T18:02:29.859Z,77.80
2017-10-16T18:04:57.547Z,77.90
2017-10-16T18:07:25.039Z,78.30
2017-10-16T18:09:52.568Z,77.90
2017-10-16T18:12:21.079Z,77.80
2017-10-16T18:14:48.534Z,77.90
2017-10-16T18:17:16.780Z,78.10
2017-10-16T18:19:44.279Z,78.10
2017-10-16T18:22:11.800Z,78.50
2017-10-16T18:24:39.259Z,78.80
2017-10-16T18:27:08.233Z,79.30
2017-10-16T18:29:35.812Z,79.30
2017-10-16T18:32:23.089Z,80.00
2017-10-16T18:35:01.987Z,79.90
2017-10-16T18:37:30.503Z,80.10
2017-10-16T18:40:28.063Z,80.30
2017-10-16T18:42:58.036Z,80.70
2017-10-16T18:45:26.393Z,81.20
2017-10-16T18:47:54.675Z,81.60
2017-10-16T18:50:23.774Z,81.90
2017-10-16T18:52:52.325Z,82.20
2017-10-16T18:55:19.979Z,82.20
2017-10-16T18:57:47.638Z,82.60
2017-10-16T19:00:15.216Z,82.90
2017-10-16T19:02:42.805Z,83.00
2017-10-16T19:05:10.286Z,83.10
2017-10-16T19:07:38.072Z,83.40
2017-10-16T19:10:06.909Z,83.70
2017-10-16T19:12:35.300Z,84.00
2017-10-16T19:15:02.807Z,83.80
2017-10-16T19:17:30.302Z,84.20
2017-10-16T19:19:58.541Z,84.50
2017-10-16T19:22:27.155Z,84.30
2017-10-16T19:24:55.439Z,84.50
2017-10-16T19:27:23.695Z,84.80
2017-10-16T19:29:51.157Z,84.80
2017-10-16T19:32:19.486Z,84.60
2017-10-16T19:34:47.008Z,84.60
2017-10-16T19:37:14.514Z,84.80
2017-10-16T19:39:42.161Z,84.90
2017-10-16T19:42:10.184Z,85.10
2017-10-16T19:44:37.741Z,85.10
2017-10-16T19:47:06.086Z,85.10
2017-10-16T19:49:34.366Z,84.70
2017-10-16T19:52:01.938Z,85.50
2017-10-16T19:54:30.797Z,85.50
2017-10-16T19:56:58.315Z,85.60
2017-10-16T19:59:25.814Z,85.70
2017-10-16T20:01:53.816Z,85.80
2017-10-16T20:04:21.323Z,85.60
2017-10-16T20:06:48.956Z,85.90
2017-10-16T20:09:17.434Z,85.90
2017-10-16T20:11:46.221Z,85.80
2017-10-16T20:14:14.453Z,85.90
2017-10-16T20:16:42.058Z,85.90
2017-10-16T20:19:10.298Z,85.90
2017-10-16T20:21:37.798Z,85.90
2017-10-16T20:24:05.307Z,86.00
2017-10-16T20:26:33.022Z,86.20
2017-10-16T20:29:01.337Z,85.90
2017-10-16T20:31:28.808Z,85.70
2017-10-16T20:33:56.392Z,85.80
2017-10-16T20:36:23.857Z,85.80
2017-10-16T20:38:52.122Z,85.40
2017-10-16T20:41:19.583Z,85.40
2017-10-16T20:43:48.109Z,85.90
2017-10-16T20:46:15.619Z,85.60
2017-10-16T20:48:43.927Z,85.60
2017-10-16T20:51:11.496Z,85.70
2017-10-16T20:53:38.988Z,85.70
2017-10-16T20:56:06.519Z,85.60
2017-10-16T20:58:34.022Z,86.50
2017-10-16T21:01:01.544Z,85.80
2017-10-16T21:03:29.029Z,86.00
2017-10-16T21:05:56.516Z,86.00
2017-10-16T21:08:24.046Z,85.90
2017-10-16T21:10:51.613Z,86.10
2017-10-16T21:13:20.008Z,86.80
2017-10-16T21:15:48.263Z,86.40
2017-10-16T21:18:15.733Z,86.30
2017-10-16T21:20:44.002Z,86.40
2017-10-16T21:23:11.470Z,86.30
2017-10-16T21:25:39.725Z,86.20
2017-10-16T21:28:07.214Z,86.10
2017-10-16T21:30:35.472Z,86.10
2017-10-16T21:33:03.740Z,86.10
2017-10-16T21:35:31.968Z,86.30
2017-10-16T21:37:59.444Z,86.30
2017-10-16T21:40:26.962Z,86.30
2017-10-16T21:42:54.560Z,86.30
2017-10-16T21:45:22.045Z,86.60
2017-10-16T21:47:50.285Z,86.00
2017-10-16T21:50:17.777Z,86.60
2017-10-16T21:52:45.250Z,86.70
2017-10-16T21:55:13.473Z,86.50
2017-10-16T21:57:40.975Z,86.50
2017-10-16T22:00:09.209Z,86.30
2017-10-16T22:02:37.268Z,86.30
2017-10-16T22:05:04.748Z,86.20
2017-10-16T22:07:32.238Z,86.20
2017-10-16T22:10:00.486Z,85.90
2017-10-16T22:12:27.979Z,85.90
2017-10-16T22:14:56.368Z,85.90
2017-10-16T22:17:23.912Z,85.80
2017-10-16T22:19:52.348Z,85.80
2017-10-16T22:22:19.843Z,85.90
2017-10-16T22:24:48.073Z,85.90
2017-10-16T22:27:15.542Z,85.90
2017-10-16T22:29:43.029Z,85.60
2017-10-16T22:32:11.297Z,85.80
2017-10-16T22:34:38.795Z,85.60
2017-10-16T22:37:06.349Z,85.60
2017-10-16T22:39:34.397Z,85.50
2017-10-16T22:42:03.236Z,85.60
2017-10-16T22:44:30.727Z,85.60
2017-10-16T22:46:58.199Z,85.30
2017-10-16T22:49:26.451Z,85.60
2017-10-16T22:51:53.917Z,85.60
2017-10-16T22:54:33.429Z,85.60
2017-10-16T22:57:00.909Z,85.60
2017-10-16T22:59:28.504Z,85.50
2017-10-16T23:01:55.980Z,86.20
2017-10-16T23:04:23.542Z,85.60
2017-10-16T23:06:51.127Z,85.50
2017-10-16T23:09:18.601Z,85.50
2017-10-16T23:11:46.093Z,85.50
2017-10-16T23:14:13.562Z,85.70
2017-10-16T23:16:41.148Z,85.60
2017-10-16T23:19:08.635Z,85.70
2017-10-16T23:21:36.122Z,85.70
2017-10-16T23:24:03.647Z,85.50
2017-10-16T23:26:31.136Z,85.50
2017-10-16T23:28:58.617Z,85.00
2017-10-16T23:31:26.084Z,84.90
2017-10-16T23:33:53.575Z,84.90
2017-10-16T23:36:21.805Z,85.00
2017-10-16T23:38:49.294Z,85.00
2017-10-16T23:41:18.279Z,85.00
2017-10-16T23:43:45.775Z,85.00
2017-10-16T23:46:14.015Z,85.10
2017-10-16T23:48:41.468Z,85.00
2017-10-16T23:51:08.949Z,85.20
2017-10-16T23:53:36.412Z,85.00
2017-10-16T23:56:03.893Z,84.80
2017-10-16T23:58:31.387Z,84.90
